createdAt,value
2023-09-23T00:03:35.110Z,19.04
2023-09-23T00:07:37.325Z,19.01
2023-09-23T00:11:38.742Z,19.02
2023-09-23T00:15:43.628Z,18.90
2023-09-23T00:19:45.470Z,18.89
2023-09-23T00:23:47.814Z,18.78
2023-09-23T00:27:50.100Z,18.88
2023-09-23T00:31:51.517Z,18.83
2023-09-23T00:35:52.931Z,18.95
2023-09-23T00:39:57.895Z,18.93
2023-09-23T00:43:59.316Z,18.73
2023-09-23T00:48:00.940Z,18.71
2023-09-23T00:52:06.708Z,18.64
2023-09-23T00:56:13.340Z,18.56
2023-09-23T01:00:15.122Z,18.59
2023-09-23T01:04:16.836Z,18.56
2023-09-23T01:08:22.037Z,18.47
2023-09-23T01:12:23.433Z,18.31
2023-09-23T01:16:25.469Z,18.30
2023-09-23T01:20:27.005Z,18.46
2023-09-23T01:24:31.312Z,18.53
2023-09-23T01:28:33.688Z,18.65
2023-09-23T01:32:52.920Z,18.63
2023-09-23T01:36:54.464Z,18.65
2023-09-23T01:40:56.092Z,18.54
2023-09-23T01:45:00.945Z,18.62
2023-09-23T01:49:04.209Z,18.48
2023-09-23T01:53:06.112Z,18.54
2023-09-23T01:57:07.889Z,18.36
2023-09-23T02:01:09.238Z,18.27
2023-09-23T02:05:10.715Z,18.17
2023-09-23T02:09:12.347Z,18.19
2023-09-23T02:13:15.910Z,18.14
2023-09-23T02:17:17.767Z,18.36
2023-09-23T02:21:20.293Z,18.25
2023-09-23T02:25:26.432Z,18.29
2023-09-23T02:29:27.913Z,18.20
2023-09-23T02:33:30.666Z,18.06
2023-09-23T02:37:32.066Z,18.14
2023-09-23T02:41:34.144Z,18.14
2023-09-23T02:45:35.712Z,18.06
2023-09-23T02:49:37.160Z,18.02
2023-09-23T02:53:38.609Z,18.14
2023-09-23T02:57:41.199Z,18.01
2023-09-23T03:01:49.640Z,17.87
2023-09-23T03:05:58.587Z,17.91
2023-09-23T03:10:02.276Z,17.84
2023-09-23T03:14:04.354Z,17.99
2023-09-23T03:18:06.523Z,17.81
2023-09-23T03:22:08.925Z,17.75
2023-09-23T03:26:10.894Z,17.91
2023-09-23T03:30:13.680Z,17.87
2023-09-23T03:34:15.625Z,17.96
2023-09-23T03:38:17.189Z,17.86
2023-09-23T03:42:18.588Z,17.90
2023-09-23T03:46:20.305Z,17.81
2023-09-23T03:50:21.674Z,17.87
2023-09-23T03:54:25.065Z,17.90
2023-09-23T03:58:27.516Z,17.80
2023-09-23T04:02:28.969Z,17.88
2023-09-23T04:06:31.234Z,17.68
2023-09-23T04:10:37.527Z,17.77
2023-09-23T04:14:38.918Z,17.72
2023-09-23T04:18:41.911Z,17.71
2023-09-23T04:22:43.912Z,17.70
2023-09-23T04:26:45.414Z,17.56
2023-09-23T04:30:46.893Z,17.53
2023-09-23T04:34:48.253Z,17.72
2023-09-23T04:38:49.682Z,17.69
2023-09-23T04:42:51.082Z,17.57
2023-09-23T04:46:52.469Z,17.64
2023-09-23T04:50:57.168Z,17.63
2023-09-23T04:54:58.737Z,17.63
2023-09-23T04:59:00.292Z,17.61
2023-09-23T05:03:02.096Z,17.48
2023-09-23T05:07:05.021Z,17.44
2023-09-23T05:11:08.079Z,17.42
2023-09-23T05:15:16.002Z,17.57
2023-09-23T05:19:20.628Z,17.62
2023-09-23T05:23:25.088Z,17.49
2023-09-23T05:27:26.466Z,17.63
2023-09-23T05:31:28.069Z,17.76
2023-09-23T05:35:29.401Z,17.72
2023-09-23T05:39:30.742Z,17.51
2023-09-23T05:43:32.145Z,17.70
2023-09-23T05:47:33.777Z,17.58
2023-09-23T05:51:35.288Z,17.78
2023-09-23T05:55:36.700Z,17.74
2023-09-23T05:59:38.055Z,17.88
2023-09-23T06:03:39.663Z,17.81
2023-09-23T06:07:42.319Z,17.81
2023-09-23T06:11:44.189Z,17.71
2023-09-23T06:15:45.627Z,17.77
2023-09-23T06:19:46.996Z,17.67
2023-09-23T06:23:48.735Z,17.83
2023-09-23T06:27:50.399Z,17.78
2023-09-23T06:31:52.425Z,17.86
2023-09-23T06:35:53.891Z,18.01
2023-09-23T06:39:55.196Z,18.00
2023-09-23T06:43:56.633Z,18.21
2023-09-23T06:47:58.381Z,18.37
2023-09-23T06:51:59.773Z,18.22
2023-09-23T06:56:01.164Z,18.51
2023-09-23T07:00:05.855Z,18.68
2023-09-23T07:04:07.508Z,19.19
2023-09-23T07:08:09.151Z,19.45
2023-09-23T07:12:13.675Z,20.47
2023-09-23T07:16:15.450Z,20.96
2023-09-23T07:20:17.063Z,21.69
2023-09-23T07:24:18.494Z,21.74
2023-09-23T07:28:19.827Z,21.45
2023-09-23T07:32:21.299Z,22.34
2023-09-23T07:36:22.709Z,22.98
2023-09-23T07:40:24.037Z,23.59
2023-09-23T07:44:25.436Z,23.89
2023-09-23T07:48:27.542Z,24.11
2023-09-23T07:52:29.206Z,24.43
2023-09-23T07:56:31.511Z,24.99
2023-09-23T08:00:32.910Z,24.48
2023-09-23T08:04:34.336Z,26.01
2023-09-23T08:08:35.733Z,25.71
2023-09-23T08:12:37.228Z,26.47
2023-09-23T08:16:38.673Z,26.82
2023-09-23T08:20:40.826Z,26.96
2023-09-23T08:24:43.653Z,27.22
2023-09-23T08:28:46.285Z,29.22
2023-09-23T08:32:47.745Z,29.79
2023-09-23T08:36:49.220Z,30.65
2023-09-23T08:40:51.589Z,31.28
2023-09-23T08:44:53.618Z,32.86
2023-09-23T08:48:56.355Z,31.29
2023-09-23T08:52:59.340Z,29.59
2023-09-23T08:57:00.803Z,28.42
2023-09-23T09:01:02.520Z,27.45
2023-09-23T09:05:04.436Z,27.16
2023-09-23T09:09:05.817Z,25.89
2023-09-23T09:13:08.425Z,25.10
2023-09-23T09:17:10.595Z,24.68
2023-09-23T09:21:12.013Z,24.43
2023-09-23T09:25:13.441Z,26.25
2023-09-23T09:29:15.030Z,27.95
2023-09-23T09:33:18.318Z,29.16
2023-09-23T09:37:23.122Z,28.71
2023-09-23T09:41:35.466Z,26.31
2023-09-23T09:45:41.554Z,26.32
2023-09-23T09:49:45.706Z,27.70
2023-09-23T09:53:47.196Z,29.49
2023-09-23T09:57:49.147Z,30.41
2023-09-23T10:01:51.717Z,31.68
2023-09-23T10:05:54.557Z,32.47
2023-09-23T10:10:00.039Z,34.25
2023-09-23T10:14:17.635Z,31.53
2023-09-23T10:18:20.762Z,29.36
2023-09-23T10:22:22.405Z,27.12
2023-09-23T10:26:24.584Z,25.93
2023-09-23T10:30:27.358Z,26.12
2023-09-23T10:34:36.880Z,27.93
2023-09-23T10:38:45.966Z,26.56
2023-09-23T10:42:50.622Z,25.16
2023-09-23T10:46:54.278Z,24.84
2023-09-23T10:50:56.175Z,25.70
2023-09-23T10:54:58.668Z,28.63
2023-09-23T10:59:00.129Z,30.40
2023-09-23T11:03:10.974Z,27.98
2023-09-23T11:07:12.540Z,27.41
2023-09-23T11:11:14.163Z,26.37
2023-09-23T11:15:15.614Z,27.62
2023-09-23T11:19:18.542Z,30.27
2023-09-23T11:23:19.942Z,29.79
2023-09-23T11:27:26.583Z,30.31
2023-09-23T11:31:28.043Z,30.63
2023-09-23T11:35:29.535Z,30.98
2023-09-23T11:39:36.409Z,30.82
2023-09-23T11:43:37.806Z,31.24
2023-09-23T11:47:40.181Z,30.75
2023-09-23T11:51:42.541Z,30.57
2023-09-23T11:55:44.108Z,30.87
2023-09-23T11:59:45.552Z,29.25
2023-09-23T12:03:48.116Z,29.50
2023-09-23T12:07:49.512Z,27.74
2023-09-23T12:11:54.103Z,27.45
2023-09-23T12:15:56.043Z,27.20
2023-09-23T12:19:57.588Z,26.29
2023-09-23T12:24:03.352Z,26.03
2023-09-23T12:28:05.205Z,25.95
2023-09-23T12:32:07.313Z,25.35
2023-09-23T12:36:08.683Z,25.78
2023-09-23T12:40:11.120Z,25.81
2023-09-23T12:44:12.583Z,25.51
2023-09-23T12:48:13.955Z,25.20
2023-09-23T12:52:15.354Z,24.92
2023-09-23T12:56:18.603Z,25.41
2023-09-23T13:00:21.961Z,25.20
2023-09-23T13:04:23.275Z,24.93
2023-09-23T13:08:24.900Z,24.74
2023-09-23T13:12:26.942Z,24.46
2023-09-23T13:16:28.339Z,24.27
2023-09-23T13:20:29.742Z,24.41
2023-09-23T13:24:32.477Z,24.74
2023-09-23T13:28:34.361Z,24.54
2023-09-23T13:32:35.870Z,24.53
2023-09-23T13:36:37.293Z,24.89
2023-09-23T13:40:38.642Z,24.96
2023-09-23T13:44:39.995Z,25.16
2023-09-23T13:48:41.414Z,24.81
2023-09-23T13:52:42.852Z,24.83
2023-09-23T13:56:44.207Z,24.87
2023-09-23T14:00:45.676Z,24.97
2023-09-23T14:04:47.190Z,24.83
2023-09-23T14:08:49.186Z,25.16
2023-09-23T14:12:50.882Z,24.85
2023-09-23T14:16:52.365Z,24.84
2023-09-23T14:20:53.811Z,25.15
2023-09-23T14:24:56.391Z,25.46
2023-09-23T14:28:59.030Z,25.29
2023-09-23T14:33:00.555Z,25.34
2023-09-23T14:37:01.961Z,25.49
2023-09-23T14:41:03.438Z,25.37
2023-09-23T14:45:05.531Z,25.20
2023-09-23T14:49:07.336Z,25.23
2023-09-23T14:53:08.728Z,24.92
2023-09-23T14:57:10.262Z,24.94
2023-09-23T15:01:11.648Z,24.94
2023-09-23T15:05:13.579Z,24.87
2023-09-23T15:09:15.195Z,25.16
2023-09-23T15:13:17.212Z,25.27
2023-09-23T15:17:18.565Z,25.23
2023-09-23T15:21:20.001Z,25.03
2023-09-23T15:25:21.343Z,25.18
2023-09-23T15:29:23.728Z,24.98
2023-09-23T15:33:26.442Z,24.49
2023-09-23T15:37:28.254Z,24.57
2023-09-23T15:41:29.623Z,24.85
2023-09-23T15:45:31.030Z,24.79
2023-09-23T15:49:42.773Z,24.71
2023-09-23T15:53:45.734Z,24.18
2023-09-23T15:57:47.146Z,24.48
2023-09-23T16:01:49.644Z,24.34
2023-09-23T16:05:51.110Z,24.46
2023-09-23T16:09:52.454Z,24.32
2023-09-23T16:13:53.813Z,24.29
2023-09-23T16:17:55.300Z,24.07
2023-09-23T16:21:58.442Z,24.16
2023-09-23T16:26:00.564Z,24.10
2023-09-23T16:30:01.966Z,24.06
2023-09-23T16:34:04.182Z,24.12
2023-09-23T16:38:05.545Z,24.01
2023-09-23T16:42:07.613Z,23.82
2023-09-23T16:46:09.948Z,23.98
2023-09-23T16:50:11.514Z,23.90
2023-09-23T16:54:12.867Z,23.91
2023-09-23T16:58:14.277Z,23.82
2023-09-23T17:02:18.520Z,23.78
2023-09-23T17:06:19.907Z,23.91
2023-09-23T17:10:21.422Z,23.56
2023-09-23T17:14:22.856Z,23.66
2023-09-23T17:18:24.763Z,23.28
2023-09-23T17:22:26.105Z,23.18
2023-09-23T17:26:27.569Z,22.90
2023-09-23T17:30:28.932Z,22.57
2023-09-23T17:34:30.384Z,22.75
2023-09-23T17:38:32.492Z,22.57
2023-09-23T17:42:33.954Z,22.18
2023-09-23T17:46:35.913Z,22.39
2023-09-23T17:50:37.399Z,22.45
2023-09-23T17:54:38.981Z,22.41
2023-09-23T17:58:41.018Z,22.40
2023-09-23T18:02:42.506Z,22.36
2023-09-23T18:06:44.568Z,22.30
2023-09-23T18:10:48.361Z,22.30
2023-09-23T18:14:50.345Z,22.28
2023-09-23T18:18:52.788Z,22.18
2023-09-23T18:22:54.538Z,22.26
2023-09-23T18:26:55.955Z,22.23
2023-09-23T18:30:57.334Z,22.32
2023-09-23T18:34:58.719Z,22.22
2023-09-23T18:39:00.092Z,22.26
2023-09-23T18:43:01.662Z,22.22
2023-09-23T18:47:03.501Z,22.27
2023-09-23T18:51:04.854Z,22.19
2023-09-23T18:55:06.891Z,22.27
2023-09-23T18:59:08.489Z,22.17
2023-09-23T19:03:09.992Z,22.08
2023-09-23T19:07:11.415Z,22.11
2023-09-23T19:11:13.865Z,22.15
2023-09-23T19:15:17.085Z,22.24
2023-09-23T19:19:18.847Z,22.21
2023-09-23T19:23:20.560Z,22.29
2023-09-23T19:27:22.064Z,22.17
2023-09-23T19:31:23.592Z,22.20
2023-09-23T19:35:27.170Z,22.26
2023-09-23T19:39:29.948Z,22.24
2023-09-23T19:43:33.048Z,22.25
2023-09-23T19:47:34.989Z,22.25
2023-09-23T19:51:36.653Z,22.19
2023-09-23T19:55:38.017Z,22.34
2023-09-23T19:59:39.421Z,22.27
2023-09-23T20:03:41.104Z,22.18
2023-09-23T20:07:42.540Z,22.11
2023-09-23T20:11:44.977Z,22.26
2023-09-23T20:15:46.446Z,22.32
2023-09-23T20:19:48.695Z,21.98
2023-09-23T20:23:50.288Z,21.82
2023-09-23T20:27:51.983Z,21.85
2023-09-23T20:31:53.381Z,21.82
2023-09-23T20:35:55.452Z,21.75
2023-09-23T20:39:57.083Z,21.82
2023-09-23T20:44:04.038Z,21.81
2023-09-23T20:48:05.874Z,21.90
2023-09-23T20:52:08.536Z,21.73
2023-09-23T20:56:14.040Z,21.74
2023-09-23T21:00:44.336Z,21.78
2023-09-23T21:04:47.012Z,21.81
2023-09-23T21:08:51.439Z,21.71
2023-09-23T21:12:52.895Z,21.89
2023-09-23T21:16:54.297Z,21.90
2023-09-23T21:20:55.816Z,21.84
2023-09-23T21:24:57.194Z,21.79
2023-09-23T21:28:58.633Z,21.74
2023-09-23T21:33:00.123Z,21.74
2023-09-23T21:37:01.447Z,21.84
2023-09-23T21:41:04.177Z,21.92
2023-09-23T21:45:06.133Z,21.86
2023-09-23T21:49:09.125Z,21.81
2023-09-23T21:53:14.571Z,21.64
2023-09-23T21:57:15.982Z,21.53
2023-09-23T22:01:17.360Z,21.34
2023-09-23T22:05:18.787Z,21.20
2023-09-23T22:09:22.218Z,20.94
2023-09-23T22:13:24.288Z,20.86
2023-09-23T22:17:27.771Z,20.86
2023-09-23T22:21:32.533Z,20.81
2023-09-23T22:25:33.859Z,20.82
2023-09-23T22:29:35.426Z,20.57
2023-09-23T22:33:38.166Z,20.55
2023-09-23T22:37:42.599Z,20.56
2023-09-23T22:41:45.395Z,20.43
2023-09-23T22:45:54.191Z,20.42
2023-09-23T22:49:56.350Z,20.27
2023-09-23T22:53:57.960Z,20.17
2023-09-23T22:58:02.922Z,20.06
2023-09-23T23:02:06.586Z,19.77
2023-09-23T23:06:08.919Z,19.89
2023-09-23T23:10:14.564Z,19.79
2023-09-23T23:14:56.651Z,19.76
2023-09-23T23:19:03.773Z,19.64
2023-09-23T23:23:08.166Z,19.65
2023-09-23T23:27:40.987Z,19.50
2023-09-23T23:31:53.095Z,19.39
2023-09-23T23:37:05.467Z,19.30
2023-09-23T23:41:20.588Z,19.32
2023-09-23T23:45:26.223Z,19.30
2023-09-23T23:49:27.986Z,19.20
2023-09-23T23:53:35.527Z,19.18
